Time,TemperatureF,DewpointF,PressureIn,WindDirection,WindDirectionDegrees,WindSpeedMPH,WindSpeedGustMPH,Humidity,HourlyPrecipIn,Conditions,Clouds,dailyrainin,SoftwareType,DateUTC
2013-02-16 00:01:00,69.6,62.5,30.14,SW,225,1.1,1.1,78,0.00,CLR,,0.00,WeatherDisplay:10.37,2013-02-15 13:01:00,
2013-02-16 00:06:00,69.6,62.5,30.14,ENE,68,0.0,0.0,78,0.00,CLR,,0.00,WeatherDisplay:10.37,2013-02-15 13:06:00,
2013-02-16 00:11:00,69.6,62.5,30.14,NE,45,0.0,0.0,78,0.00,CLR,,0.00,WeatherDisplay:10.37,2013-02-15 13:11:00,
2013-02-16 00:16:00,69.6,62.5,30.14,South,180,0.0,0.0,78,0.00,CLR,,0.00,WeatherDisplay:10.37,2013-02-15 13:16:00,
2013-02-16 00:21:00,69.6,62.5,30.14,South,180,0.0,0.0,78,0.00,CLR,,0.00,WeatherDisplay:10.37,2013-02-15 13:21:00,
2013-02-16 00:26:00,69.4,62.3,30.14,South,180,0.0,0.0,78,0.00,CLR,,0.00,WeatherDisplay:10.37,2013-02-15 13:26:00,
2013-02-16 00:31:00,69.4,62.3,30.14,West,270,0.0,0.0,78,0.00,CLR,,0.00,WeatherDisplay:10.37,2013-02-15 13:31:00,
2013-02-16 00:36:00,69.4,62.3,30.14,WSW,248,0.0,0.0,78,0.00,CLR,,0.00,WeatherDisplay:10.37,2013-02-15 13:36:00,
2013-02-16 00:41:00,69.3,62.1,30.13,WSW,248,0.0,0.0,78,0.00,CLR,,0.00,WeatherDisplay:10.37,2013-02-15 13:41:00,
2013-02-16 00:46:00,69.1,61.9,30.13,WSW,248,0.0,0.0,78,0.00,CLR,,0.00,WeatherDisplay:10.37,2013-02-15 13:46:00,
2013-02-16 00:51:00,68.9,61.8,30.13,WNW,292,0.0,0.0,78,0.00,CLR,,0.00,WeatherDisplay:10.37,2013-02-15 13:51:00,
2013-02-16 00:56:00,68.7,61.9,30.14,WSW,248,0.0,0.0,79,0.00,CLR,,0.00,WeatherDisplay:10.37,2013-02-15 13:56:00,
2013-02-16 01:01:00,68.7,61.9,30.14,SW,225,0.0,0.0,79,0.00,CLR,,0.00,WeatherDisplay:10.37,2013-02-15 14:01:00,
2013-02-16 01:06:00,68.5,61.8,30.13,SW,225,0.0,0.0,79,0.00,CLR,,0.00,WeatherDisplay:10.37,2013-02-15 14:06:00,
2013-02-16 01:11:00,68.5,61.8,30.13,NW,315,0.0,0.0,79,0.00,CLR,,0.00,WeatherDisplay:10.37,2013-02-15 14:11:00,
2013-02-16 01:16:00,68.4,61.6,30.13,WNW,292,0.0,0.0,79,0.00,CLR,,0.00,WeatherDisplay:10.37,2013-02-15 14:16:00,
2013-02-16 01:21:00,68.4,61.6,30.13,WSW,248,0.0,0.0,79,0.00,CLR,,0.00,WeatherDisplay:10.37,2013-02-15 14:21:00,
2013-02-16 01:26:00,68.4,61.6,30.13,WNW,292,0.0,0.0,79,0.00,CLR,,0.00,WeatherDisplay:10.37,2013-02-15 14:26:00,
2013-02-16 01:31:00,68.2,61.4,30.13,NW,315,0.0,0.0,79,0.00,CLR,,0.00,WeatherDisplay:10.37,2013-02-15 14:31:00,
2013-02-16 01:36:00,68.2,61.4,30.13,SW,225,0.0,0.0,79,0.00,CLR,,0.00,WeatherDisplay:10.37,2013-02-15 14:36:00,
2013-02-16 01:41:00,68.2,61.4,30.13,WSW,248,1.1,1.1,79,0.00,CLR,,0.00,WeatherDisplay:10.37,2013-02-15 14:41:00,
2013-02-16 01:46:00,68.2,61.8,30.13,West,270,0.0,0.0,80,0.00,CLR,,0.00,WeatherDisplay:10.37,2013-02-15 14:46:00,
2013-02-16 01:51:00,68.2,61.8,30.13,SW,225,0.0,0.0,80,0.00,CLR,,0.00,WeatherDisplay:10.37,2013-02-15 14:51:00,
2013-02-16 01:56:00,68.2,61.8,30.13,West,270,0.0,0.0,80,0.00,CLR,,0.00,WeatherDisplay:10.37,2013-02-15 14:56:00,
2013-02-16 02:01:00,68.2,61.8,30.13,NW,315,0.0,0.0,80,0.00,CLR,,0.00,WeatherDisplay:10.37,2013-02-15 15:01:00,
2013-02-16 02:06:00,68.2,61.8,30.13,West,270,0.0,0.0,80,0.00,CLR,,0.00,WeatherDisplay:10.37,2013-02-15 15:06:00,
2013-02-16 02:11:00,68.2,61.8,30.12,WSW,248,0.0,0.0,80,0.00,CLR,,0.00,WeatherDisplay:10.37,2013-02-15 15:11:00,
2013-02-16 02:16:00,68.0,61.6,30.12,WSW,248,0.0,0.0,80,0.00,CLR,,0.00,WeatherDisplay:10.37,2013-02-15 15:16:00,
2013-02-16 02:21:00,67.8,61.4,30.12,NW,315,0.0,0.0,80,0.00,CLR,,0.00,WeatherDisplay:10.37,2013-02-15 15:21:00,
2013-02-16 02:26:00,67.6,61.2,30.12,WNW,292,0.0,0.0,80,0.00,CLR,,0.00,WeatherDisplay:10.37,2013-02-15 15:26:00,
2013-02-16 02:31:00,67.6,61.2,30.12,West,270,0.0,0.0,80,0.00,CLR,,0.00,WeatherDisplay:10.37,2013-02-15 15:31:00,
2013-02-16 02:36:00,67.5,61.1,30.12,WSW,248,0.0,0.0,80,0.00,CLR,,0.00,WeatherDisplay:10.37,2013-02-15 15:36:00,
2013-02-16 02:41:00,67.5,61.1,30.11,NW,315,0.0,0.0,80,0.00,CLR,,0.00,WeatherDisplay:10.37,2013-02-15 15:41:00,
2013-02-16 02:46:00,67.3,60.9,30.11,NW,315,0.0,0.0,80,0.00,CLR,,0.00,WeatherDisplay:10.37,2013-02-15 15:46:00,
2013-02-16 02:51:00,67.3,60.9,30.11,SW,225,0.0,0.0,80,0.00,CLR,,0.00,WeatherDisplay:10.37,2013-02-15 15:51:00,
2013-02-16 02:56:00,67.3,60.9,30.11,SW,225,0.0,0.0,80,0.00,CLR,,0.00,WeatherDisplay:10.37,2013-02-15 15:56:00,
2013-02-16 03:01:00,67.3,60.9,30.11,North,0,1.6,1.6,80,0.00,CLR,,0.00,WeatherDisplay:10.37,2013-02-15 16:01:00,
2013-02-16 03:06:00,67.1,60.7,30.11,NW,315,0.0,0.0,80,0.00,CLR,,0.00,WeatherDisplay:10.37,2013-02-15 16:06:00,
2013-02-16 03:11:00,66.9,60.5,30.11,WNW,292,0.0,0.0,80,0.00,CLR,,0.00,WeatherDisplay:10.37,2013-02-15 16:11:00,
2013-02-16 03:16:00,66.9,60.5,30.11,SW,225,0.0,0.0,80,0.00,CLR,,0.00,WeatherDisplay:10.37,2013-02-15 16:16:00,
2013-02-16 03:21:00,66.7,60.4,30.11,SSE,158,0.0,0.0,80,0.00,CLR,,0.00,WeatherDisplay:10.37,2013-02-15 16:21:00,
2013-02-16 03:26:00,66.7,60.4,30.11,ENE,68,0.0,0.0,80,0.00,CLR,,0.00,WeatherDisplay:10.37,2013-02-15 16:26:00,
2013-02-16 03:31:00,66.7,60.4,30.10,ENE,68,0.0,0.0,80,0.00,CLR,,0.00,WeatherDisplay:10.37,2013-02-15 16:31:00,
2013-02-16 03:36:00,66.7,60.4,30.10,North,0,0.7,0.7,80,0.00,CLR,,0.00,WeatherDisplay:10.37,2013-02-15 16:36:00,
2013-02-16 03:41:00,66.6,60.2,30.10,WNW,292,0.0,0.0,80,0.00,CLR,,0.00,WeatherDisplay:10.37,2013-02-15 16:41:00,
2013-02-16 03:46:00,66.6,60.2,30.10,WNW,292,0.0,0.0,80,0.00,CLR,,0.00,WeatherDisplay:10.37,2013-02-15 16:46:00,
2013-02-16 03:51:00,66.6,60.2,30.10,WNW,292,0.0,0.0,80,0.00,CLR,,0.00,WeatherDisplay:10.37,2013-02-15 16:51:00,
2013-02-16 03:56:00,66.6,60.2,30.10,WNW,292,0.0,0.0,80,0.00,CLR,,0.00,WeatherDisplay:10.37,2013-02-15 16:56:00,
2013-02-16 04:01:00,66.6,60.2,30.10,ENE,68,0.0,0.0,80,0.00,CLR,,0.00,WeatherDisplay:10.37,2013-02-15 17:01:00,
2013-02-16 04:06:00,66.4,60.0,30.10,East,90,0.0,0.0,80,0.00,CLR,,0.00,WeatherDisplay:10.37,2013-02-15 17:06:00,
2013-02-16 04:11:00,66.4,60.0,30.09,North,0,0.9,0.0,80,0.00,CLR,,0.00,WeatherDisplay:10.37,2013-02-15 17:11:00,
2013-02-16 04:16:00,66.4,60.4,30.09,NNE,22,0.0,0.0,81,0.00,CLR,,0.00,WeatherDisplay:10.37,2013-02-15 17:16:00,
2013-02-16 04:21:00,66.0,60.0,30.09,NNE,22,0.0,0.0,81,0.00,CLR,,0.00,WeatherDisplay:10.37,2013-02-15 17:21:00,
2013-02-16 04:26:00,66.2,60.2,30.09,NNW,338,0.0,0.0,81,0.00,CLR,,0.00,WeatherDisplay:10.37,2013-02-15 17:26:00,
2013-02-16 04:31:00,66.0,60.0,30.09,North,0,0.0,0.0,81,0.00,CLR,,0.00,WeatherDisplay:10.37,2013-02-15 17:31:00,
2013-02-16 04:36:00,66.0,60.0,30.09,NNW,338,0.0,0.0,81,0.00,CLR,,0.00,WeatherDisplay:10.37,2013-02-15 17:36:00,
2013-02-16 04:41:00,66.0,60.0,30.09,South,180,0.0,0.0,81,0.00,CLR,,0.00,WeatherDisplay:10.37,2013-02-15 17:41:00,
2013-02-16 04:46:00,66.0,60.0,30.09,SSW,202,0.0,0.0,81,0.00,CLR,,0.00,WeatherDisplay:10.37,2013-02-15 17:46:00,
2013-02-16 04:51:00,65.8,59.8,30.08,West,270,0.0,0.0,81,0.00,CLR,,0.00,WeatherDisplay:10.37,2013-02-15 17:51:00,
2013-02-16 04:56:00,65.8,59.8,30.09,NW,315,0.0,0.0,81,0.00,CLR,,0.00,WeatherDisplay:10.37,2013-02-15 17:56:00,
2013-02-16 05:01:00,65.8,59.8,30.09,NW,315,0.0,0.0,81,0.00,CLR,,0.00,WeatherDisplay:10.37,2013-02-15 18:01:00,
2013-02-16 05:06:00,65.8,59.8,30.08,WNW,292,0.0,0.0,81,0.00,CLR,,0.00,WeatherDisplay:10.37,2013-02-15 18:06:00,
2013-02-16 05:11:00,65.8,60.2,30.08,West,270,0.0,0.0,82,0.00,CLR,,0.00,WeatherDisplay:10.37,2013-02-15 18:11:00,
2013-02-16 05:16:00,65.8,60.2,30.08,NW,315,0.0,0.0,82,0.00,CLR,,0.00,WeatherDisplay:10.37,2013-02-15 18:16:00,
2013-02-16 05:21:00,65.8,60.2,30.09,NW,315,0.0,0.0,82,0.00,CLR,,0.00,WeatherDisplay:10.37,2013-02-15 18:21:00,
2013-02-16 05:26:00,65.7,60.0,30.09,NW,315,0.0,0.0,82,0.00,CLR,,0.00,WeatherDisplay:10.37,2013-02-15 18:26:00,
2013-02-16 05:31:00,65.7,60.0,30.09,NNW,338,0.0,0.0,82,0.00,CLR,,0.00,WeatherDisplay:10.37,2013-02-15 18:31:00,
2013-02-16 05:36:00,65.5,59.8,30.09,WSW,248,0.0,0.0,82,0.00,CLR,,0.00,WeatherDisplay:10.37,2013-02-15 18:36:00,
2013-02-16 05:41:00,65.5,59.8,30.09,WSW,248,0.0,0.0,82,0.00,CLR,,0.00,WeatherDisplay:10.37,2013-02-15 18:41:00,
2013-02-16 05:46:00,65.5,59.8,30.09,ENE,68,0.0,0.0,82,0.00,CLR,,0.00,WeatherDisplay:10.37,2013-02-15 18:46:00,
2013-02-16 05:51:00,65.3,59.7,30.09,North,0,0.0,0.0,82,0.00,CLR,,0.00,WeatherDisplay:10.37,2013-02-15 18:51:00,
2013-02-16 05:56:00,65.3,59.3,30.10,North,0,1.6,1.6,81,0.00,CLR,,0.00,WeatherDisplay:10.37,2013-02-15 18:56:00,
2013-02-16 06:01:00,65.1,59.5,30.10,NW,315,1.1,0.0,82,0.00,CLR,,0.00,WeatherDisplay:10.37,2013-02-15 19:01:00,
2013-02-16 06:06:00,65.1,59.5,30.10,North,0,0.0,0.0,82,0.00,CLR,,0.00,WeatherDisplay:10.37,2013-02-15 19:06:00,
2013-02-16 06:11:00,65.1,59.5,30.10,North,0,1.1,1.1,82,0.00,CLR,,0.00,WeatherDisplay:10.37,2013-02-15 19:11:00,
2013-02-16 06:16:00,65.3,59.7,30.10,South,180,0.0,0.0,82,0.00,CLR,,0.00,WeatherDisplay:10.37,2013-02-15 19:16:00,
2013-02-16 06:21:00,65.1,59.5,30.10,South,180,0.0,0.0,82,0.00,CLR,,0.00,WeatherDisplay:10.37,2013-02-15 19:21:00,
2013-02-16 06:26:00,65.1,59.5,30.10,West,270,0.0,0.0,82,0.00,CLR,,0.00,WeatherDisplay:10.37,2013-02-15 19:26:00,
2013-02-16 06:31:00,65.1,59.5,30.10,NW,315,0.0,0.0,82,0.00,CLR,,0.00,WeatherDisplay:10.37,2013-02-15 19:31:00,
2013-02-16 06:36:00,65.1,59.8,30.10,NW,315,1.1,1.1,83,0.00,CLR,,0.00,WeatherDisplay:10.37,2013-02-15 19:36:00,
2013-02-16 06:41:00,65.1,59.8,30.11,NNW,338,0.0,0.2,83,0.00,CLR,,0.00,WeatherDisplay:10.37,2013-02-15 19:41:00,
2013-02-16 06:46:00,65.1,59.8,30.11,North,0,1.1,1.1,83,0.00,CLR,,0.00,WeatherDisplay:10.37,2013-02-15 19:46:00,
2013-02-16 06:51:00,65.3,60.0,30.11,NW,315,2.3,2.3,83,0.00,CLR,,0.00,WeatherDisplay:10.37,2013-02-15 19:51:00,
2013-02-16 06:56:00,65.3,60.0,30.11,SSE,158,0.0,0.0,83,0.00,CLR,,0.00,WeatherDisplay:10.37,2013-02-15 19:56:00,
2013-02-16 07:01:00,65.1,59.8,30.11,SSE,158,0.0,0.0,83,0.00,CLR,,0.00,WeatherDisplay:10.37,2013-02-15 20:01:00,
2013-02-16 07:06:00,65.3,60.0,30.11,North,0,0.0,0.0,83,0.00,CLR,,0.00,WeatherDisplay:10.37,2013-02-15 20:06:00,
2013-02-16 07:11:00,65.1,59.8,30.11,NNW,338,1.1,1.1,83,0.00,CLR,,0.00,WeatherDisplay:10.37,2013-02-15 20:11:00,
2013-02-16 07:16:00,65.3,60.0,30.12,North,0,1.1,1.1,83,0.00,CLR,,0.00,WeatherDisplay:10.37,2013-02-15 20:16:00,
2013-02-16 07:21:00,65.5,60.2,30.11,NNW,338,1.1,1.1,83,0.00,CLR,,0.00,WeatherDisplay:10.37,2013-02-15 20:21:00,
2013-02-16 07:26:00,65.5,60.2,30.12,NNW,338,2.3,2.3,83,0.00,CLR,,0.00,WeatherDisplay:10.37,2013-02-15 20:26:00,
2013-02-16 07:31:00,65.5,60.5,30.12,NW,315,1.1,0.0,84,0.00,CLR,,0.00,WeatherDisplay:10.37,2013-02-15 20:31:00,
2013-02-16 07:36:00,65.8,60.9,30.12,WNW,292,1.1,1.1,84,0.00,CLR,,0.00,WeatherDisplay:10.37,2013-02-15 20:36:00,
2013-02-16 07:41:00,66.0,61.0,30.12,SSW,202,2.3,2.3,84,0.00,CLR,,0.00,WeatherDisplay:10.37,2013-02-15 20:41:00,
2013-02-16 07:47:00,66.0,61.0,30.12,NW,315,1.1,0.0,84,0.00,CLR,,0.00,WeatherDisplay:10.37,2013-02-15 20:47:00,
2013-02-16 07:52:00,66.0,61.0,30.13,NNW,338,1.1,1.1,84,0.00,CLR,,0.00,WeatherDisplay:10.37,2013-02-15 20:52:00,
2013-02-16 07:57:00,66.2,61.2,30.13,NNW,338,1.1,1.1,84,0.00,CLR,,0.00,WeatherDisplay:10.37,2013-02-15 20:57:00,
2013-02-16 08:02:00,66.6,61.6,30.13,West,270,0.0,0.0,84,0.00,CLR,,0.00,WeatherDisplay:10.37,2013-02-15 21:02:00,
2013-02-16 08:07:00,66.6,61.6,30.13,NNW,338,0.0,0.0,84,0.00,CLR,,0.00,WeatherDisplay:10.37,2013-02-15 21:07:00,
2013-02-16 08:12:00,66.7,61.7,30.13,South,180,0.0,0.0,84,0.00,CLR,,0.00,WeatherDisplay:10.37,2013-02-15 21:12:00,
2013-02-16 08:17:00,66.7,61.7,30.13,South,180,1.1,1.1,84,0.00,CLR,,0.00,WeatherDisplay:10.37,2013-02-15 21:17:00,
2013-02-16 08:22:00,66.9,61.9,30.13,South,180,1.1,1.1,84,0.00,CLR,,0.00,WeatherDisplay:10.37,2013-02-15 21:22:00,
2013-02-16 08:27:00,67.3,62.3,30.13,SE,135,2.3,2.3,84,0.00,CLR,,0.00,WeatherDisplay:10.37,2013-02-15 21:27:00,
2013-02-16 08:32:00,67.6,62.6,30.13,South,180,4.6,4.6,84,0.00,CLR,,0.00,WeatherDisplay:10.37,2013-02-15 21:32:00,
2013-02-16 08:37:00,67.8,62.8,30.13,SW,225,4.6,4.6,84,0.00,CLR,,0.00,WeatherDisplay:10.37,2013-02-15 21:37:00,
2013-02-16 08:44:00,68.2,63.2,30.14,South,180,3.5,3.5,84,0.00,CLR,,0.00,WeatherDisplay:10.37,2013-02-15 21:44:00,
2013-02-16 08:49:00,68.2,63.2,30.14,SSE,158,2.3,2.3,84,0.00,CLR,,0.00,WeatherDisplay:10.37,2013-02-15 21:49:00,
2013-02-16 08:54:00,68.7,63.7,30.14,SSE,158,2.3,2.3,84,0.00,CLR,,0.00,WeatherDisplay:10.37,2013-02-15 21:54:00,
2013-02-16 08:59:00,68.9,63.9,30.14,SSW,202,6.0,6.0,84,0.00,CLR,,0.00,WeatherDisplay:10.37,2013-02-15 21:59:00,
2013-02-16 09:04:00,69.4,63.7,30.14,SE,135,9.2,9.2,82,0.00,CLR,,0.00,WeatherDisplay:10.37,2013-02-15 22:04:00,
2013-02-16 09:09:00,69.6,63.9,30.14,SW,225,5.8,5.8,82,0.00,CLR,,0.00,WeatherDisplay:10.37,2013-02-15 22:09:00,
2013-02-16 09:14:00,69.8,64.1,30.14,SE,135,4.6,4.6,82,0.00,CLR,,0.00,WeatherDisplay:10.37,2013-02-15 22:14:00,
2013-02-16 09:19:00,70.0,63.9,30.15,SSW,202,4.6,4.6,81,0.00,CLR,,0.00,WeatherDisplay:10.37,2013-02-15 22:19:00,
2013-02-16 09:24:00,70.0,63.9,30.15,SSE,158,3.5,3.5,81,0.00,CLR,,0.00,WeatherDisplay:10.37,2013-02-15 22:24:00,
2013-02-16 09:29:00,70.2,64.1,30.15,SSE,158,3.5,3.5,81,0.00,CLR,,0.00,WeatherDisplay:10.37,2013-02-15 22:29:00,
2013-02-16 09:34:00,70.3,64.2,30.15,SSE,158,2.3,2.3,81,0.00,CLR,,0.00,WeatherDisplay:10.37,2013-02-15 22:34:00,
2013-02-16 09:39:00,70.5,64.0,30.15,South,180,4.9,4.9,80,0.00,CLR,,0.00,WeatherDisplay:10.37,2013-02-15 22:39:00,
2013-02-16 09:44:00,70.7,64.2,30.15,SSW,202,3.5,3.5,80,0.00,CLR,,0.00,WeatherDisplay:10.37,2013-02-15 22:44:00,
2013-02-16 09:49:00,70.9,64.0,30.15,SSE,158,6.9,6.9,79,0.00,CLR,,0.00,WeatherDisplay:10.37,2013-02-15 22:49:00,
2013-02-16 09:54:00,71.2,64.0,30.15,SSE,158,5.8,5.8,78,0.00,CLR,,0.00,WeatherDisplay:10.37,2013-02-15 22:54:00,
2013-02-16 09:59:00,71.8,64.2,30.15,SSE,158,6.9,6.9,77,0.00,CLR,,0.00,WeatherDisplay:10.37,2013-02-15 22:59:00,
2013-02-16 10:04:00,72.3,64.3,30.15,SSE,158,5.8,5.8,76,0.00,CLR,,0.00,WeatherDisplay:10.37,2013-02-15 23:04:00,
2013-02-16 10:09:00,72.7,64.3,30.15,East,90,9.2,9.2,75,0.00,CLR,,0.00,WeatherDisplay:10.37,2013-02-15 23:09:00,
2013-02-16 10:14:00,72.5,63.4,30.15,SE,135,5.8,5.8,73,0.00,CLR,,0.00,WeatherDisplay:10.37,2013-02-15 23:14:00,
2013-02-16 10:19:00,72.5,63.0,30.15,ESE,112,6.9,6.9,72,0.00,CLR,,0.00,WeatherDisplay:10.37,2013-02-15 23:19:00,
2013-02-16 10:24:00,72.3,63.2,30.16,SE,135,4.7,4.9,73,0.00,CLR,,0.00,WeatherDisplay:10.37,2013-02-15 23:24:00,
2013-02-16 10:29:00,72.3,63.9,30.15,SE,135,6.9,6.9,75,0.00,CLR,,0.00,WeatherDisplay:10.37,2013-02-15 23:29:00,
2013-02-16 10:34:00,72.3,63.9,30.15,SSW,202,3.5,3.5,75,0.00,CLR,,0.00,WeatherDisplay:10.37,2013-02-15 23:34:00,
2013-02-16 10:39:00,72.3,63.9,30.15,SW,225,4.6,4.6,75,0.00,CLR,,0.00,WeatherDisplay:10.37,2013-02-15 23:39:00,
2013-02-16 10:44:00,73.0,64.3,30.15,ESE,112,9.2,9.2,74,0.00,CLR,,0.00,WeatherDisplay:10.37,2013-02-15 23:44:00,
2013-02-16 10:49:00,73.6,64.8,30.15,South,180,9.2,9.2,74,0.00,CLR,,0.00,WeatherDisplay:10.37,2013-02-15 23:49:00,
2013-02-16 10:54:00,74.1,65.3,30.15,SSE,158,6.9,6.9,74,0.00,CLR,,0.00,WeatherDisplay:10.37,2013-02-15 23:54:00,
2013-02-16 10:59:00,74.5,64.5,30.15,SSE,158,8.1,8.1,71,0.00,CLR,,0.00,WeatherDisplay:10.37,2013-02-15 23:59:00,
2013-02-16 11:04:00,74.8,63.6,30.15,SSE,158,3.5,3.5,68,0.00,CLR,,0.00,WeatherDisplay:10.37,2013-02-16 00:04:00,
2013-02-16 11:09:00,75.0,63.7,30.15,SSW,202,9.2,9.2,68,0.00,CLR,,0.00,WeatherDisplay:10.37,2013-02-16 00:09:00,
2013-02-16 11:14:00,75.4,63.7,30.14,ESE,112,7.4,7.4,67,0.00,CLR,,0.00,WeatherDisplay:10.37,2013-02-16 00:14:00,
2013-02-16 11:19:00,75.2,63.1,30.14,SSE,158,8.1,8.1,66,0.00,CLR,,0.00,WeatherDisplay:10.37,2013-02-16 00:19:00,
2013-02-16 11:24:00,75.0,63.3,30.14,East,90,5.8,5.8,67,0.00,CLR,,0.00,WeatherDisplay:10.37,2013-02-16 00:24:00,
2013-02-16 11:29:00,75.0,62.9,30.14,SSE,158,6.9,6.9,66,0.00,CLR,,0.00,WeatherDisplay:10.37,2013-02-16 00:29:00,
2013-02-16 11:34:00,75.4,63.2,30.14,NE,45,9.2,9.2,66,0.00,CLR,,0.00,WeatherDisplay:10.37,2013-02-16 00:34:00,
2013-02-16 11:39:00,75.7,63.6,30.14,SSE,158,10.4,10.4,66,0.00,CLR,,0.00,WeatherDisplay:10.37,2013-02-16 00:39:00,
2013-02-16 11:44:00,76.1,63.5,30.14,SE,135,9.2,9.2,65,0.00,CLR,,0.00,WeatherDisplay:10.37,2013-02-16 00:44:00,
2013-02-16 11:49:00,75.9,62.9,30.14,ESE,112,6.5,6.5,64,0.00,CLR,,0.00,WeatherDisplay:10.37,2013-02-16 00:49:00,
2013-02-16 11:54:00,76.1,63.5,30.14,SE,135,8.9,8.9,65,0.00,CLR,,0.00,WeatherDisplay:10.37,2013-02-16 00:54:00,
2013-02-16 11:59:00,75.9,62.9,30.14,SW,225,4.6,4.6,64,0.00,CLR,,0.00,WeatherDisplay:10.37,2013-02-16 00:59:00,
2013-02-16 12:04:00,75.7,62.7,30.14,SSE,158,5.4,5.4,64,0.00,CLR,,0.00,WeatherDisplay:10.37,2013-02-16 01:04:00,
2013-02-16 12:09:00,75.6,62.5,30.13,SE,135,6.3,6.3,64,0.00,CLR,,0.00,WeatherDisplay:10.37,2013-02-16 01:09:00,
2013-02-16 12:14:00,75.7,62.7,30.13,South,180,8.1,8.1,64,0.00,CLR,,0.00,WeatherDisplay:10.37,2013-02-16 01:14:00,
2013-02-16 12:19:00,75.9,62.9,30.13,SSE,158,9.2,9.2,64,0.00,CLR,,0.00,WeatherDisplay:10.37,2013-02-16 01:19:00,
2013-02-16 12:24:00,75.7,62.2,30.13,SE,135,10.4,10.4,63,0.00,CLR,,0.00,WeatherDisplay:10.37,2013-02-16 01:24:00,
2013-02-16 12:29:00,75.9,62.9,30.13,SSE,158,12.7,12.7,64,0.00,CLR,,0.00,WeatherDisplay:10.37,2013-02-16 01:29:00,
2013-02-16 12:34:00,75.7,62.2,30.13,South,180,8.1,8.6,63,0.00,CLR,,0.00,WeatherDisplay:10.37,2013-02-16 01:34:00,
2013-02-16 12:39:00,75.7,62.2,30.13,North,0,12.7,12.7,63,0.00,CLR,,0.00,WeatherDisplay:10.37,2013-02-16 01:39:00,
2013-02-16 12:44:00,76.3,62.8,30.13,SE,135,11.5,11.5,63,0.00,CLR,,0.00,WeatherDisplay:10.37,2013-02-16 01:44:00,
2013-02-16 12:49:00,76.5,62.5,30.13,South,180,6.9,6.9,62,0.00,CLR,,0.00,WeatherDisplay:10.37,2013-02-16 01:49:00,
2013-02-16 12:54:00,76.5,62.5,30.13,ESE,112,6.9,6.9,62,0.00,CLR,,0.00,WeatherDisplay:10.37,2013-02-16 01:54:00,
2013-02-16 12:59:00,76.6,62.6,30.13,SSE,158,6.9,6.9,62,0.00,CLR,,0.00,WeatherDisplay:10.37,2013-02-16 01:59:00,
2013-02-16 13:04:00,76.6,62.2,30.14,SSE,158,11.5,11.5,61,0.00,CLR,,0.00,WeatherDisplay:10.37,2013-02-16 02:04:00,
2013-02-16 13:09:00,76.6,62.2,30.13,ENE,68,11.5,11.5,61,0.00,CLR,,0.00,WeatherDisplay:10.37,2013-02-16 02:09:00,
2013-02-16 13:14:00,76.8,62.3,30.13,SSE,158,8.1,8.1,61,0.00,CLR,,0.00,WeatherDisplay:10.37,2013-02-16 02:14:00,
2013-02-16 13:19:00,77.2,62.2,30.13,SE,135,11.5,11.5,60,0.00,CLR,,0.00,WeatherDisplay:10.37,2013-02-16 02:19:00,
2013-02-16 13:24:00,77.4,62.4,30.13,ESE,112,6.3,6.3,60,0.00,CLR,,0.00,WeatherDisplay:10.37,2013-02-16 02:24:00,
2013-02-16 13:29:00,77.5,61.6,30.13,SE,135,13.8,13.8,58,0.00,CLR,,0.00,WeatherDisplay:10.37,2013-02-16 02:29:00,
2013-02-16 13:34:00,77.4,61.4,30.13,SSE,158,6.9,6.9,58,0.00,CLR,,0.00,WeatherDisplay:10.37,2013-02-16 02:34:00,
2013-02-16 13:39:00,77.5,62.1,30.13,ESE,112,9.2,9.2,59,0.00,CLR,,0.00,WeatherDisplay:10.37,2013-02-16 02:39:00,
2013-02-16 13:44:00,77.7,62.2,30.13,SSW,202,9.2,9.2,59,0.00,CLR,,0.00,WeatherDisplay:10.37,2013-02-16 02:44:00,
2013-02-16 13:49:00,77.7,62.2,30.12,ESE,112,10.3,10.3,59,0.00,CLR,,0.00,WeatherDisplay:10.37,2013-02-16 02:49:00,
2013-02-16 13:54:00,77.9,61.9,30.12,SE,135,10.9,10.9,58,0.00,CLR,,0.00,WeatherDisplay:10.37,2013-02-16 02:54:00,
2013-02-16 13:59:00,77.7,62.2,30.12,ESE,112,11.2,11.2,59,0.00,CLR,,0.00,WeatherDisplay:10.37,2013-02-16 02:59:00,
2013-02-16 14:04:00,78.1,62.6,30.12,SE,135,10.4,10.4,59,0.00,CLR,,0.00,WeatherDisplay:10.37,2013-02-16 03:04:00,
2013-02-16 14:09:00,78.1,62.6,30.12,South,180,8.1,8.1,59,0.00,CLR,,0.00,WeatherDisplay:10.37,2013-02-16 03:09:00,
2013-02-16 14:14:00,77.9,62.4,30.12,SE,135,6.9,6.9,59,0.00,CLR,,0.00,WeatherDisplay:10.37,2013-02-16 03:14:00,
2013-02-16 14:19:00,78.4,62.9,30.12,ESE,112,12.7,12.7,59,0.00,CLR,,0.00,WeatherDisplay:10.37,2013-02-16 03:19:00,
2013-02-16 14:24:00,78.6,62.6,30.12,ESE,112,9.2,9.2,58,0.00,CLR,,0.00,WeatherDisplay:10.37,2013-02-16 03:24:00,
2013-02-16 14:29:00,78.1,62.6,30.11,East,90,8.1,8.1,59,0.00,CLR,,0.00,WeatherDisplay:10.37,2013-02-16 03:29:00,
2013-02-16 14:34:00,77.8,62.4,30.11,SE,131,5.0,8.0,59,0.00,CLR,,0.00,WeatherDisplay:10.37,2013-02-16 03:34:00,
2013-02-16 14:39:00,77.7,62.7,30.11,SE,135,5.0,12.0,60,0.00,CLR,,0.00,WeatherDisplay:10.37,2013-02-16 03:39:00,
2013-02-16 14:44:00,77.9,62.9,30.11,SE,129,6.0,12.0,60,0.00,CLR,,0.00,WeatherDisplay:10.37,2013-02-16 03:44:00,
2013-02-16 14:49:00,78.4,62.9,30.11,SSW,202,8.3,8.3,59,0.00,CLR,,0.00,WeatherDisplay:10.37,2013-02-16 03:49:00,
2013-02-16 14:54:00,78.4,62.9,30.11,East,90,10.4,10.4,59,0.00,CLR,,0.00,WeatherDisplay:10.37,2013-02-16 03:54:00,
2013-02-16 14:59:00,78.4,62.9,30.11,ESE,112,7.0,12.0,59,0.00,CLR,,0.00,WeatherDisplay:10.37,2013-02-16 03:59:00,
2013-02-16 15:04:00,78.4,62.9,30.11,ESE,109,12.0,16.0,59,0.00,CLR,,0.00,WeatherDisplay:10.37,2013-02-16 04:04:00,
2013-02-16 15:09:00,78.1,62.6,30.10,ESE,123,7.0,14.0,59,0.00,CLR,,0.00,WeatherDisplay:10.37,2013-02-16 04:09:00,
2013-02-16 15:14:00,77.9,62.9,30.10,ESE,123,8.0,15.0,60,0.00,CLR,,0.00,WeatherDisplay:10.37,2013-02-16 04:14:00,
2013-02-16 15:19:00,77.7,62.7,30.10,ESE,103,6.0,11.0,60,0.00,CLR,,0.00,WeatherDisplay:10.37,2013-02-16 04:19:00,
2013-02-16 15:24:00,77.7,63.2,30.10,ESE,106,8.0,13.0,61,0.00,CLR,,0.00,WeatherDisplay:10.37,2013-02-16 04:24:00,
2013-02-16 15:29:00,77.7,62.7,30.10,ESE,111,6.0,8.0,60,0.00,CLR,,0.00,WeatherDisplay:10.37,2013-02-16 04:29:00,
2013-02-16 15:34:00,78.1,63.5,30.10,ESE,119,6.0,12.0,61,0.00,CLR,,0.00,WeatherDisplay:10.37,2013-02-16 04:34:00,
2013-02-16 15:39:00,78.4,63.4,30.10,ESE,112,8.0,12.0,60,0.00,CLR,,0.00,WeatherDisplay:10.37,2013-02-16 04:39:00,
2013-02-16 15:44:00,78.4,63.3,30.10,ESE,118,7.0,12.0,60,0.00,CLR,,0.00,WeatherDisplay:10.37,2013-02-16 04:44:00,
2013-02-16 15:49:00,78.4,63.4,30.10,SE,135,4.6,4.9,60,0.00,CLR,,0.00,WeatherDisplay:10.37,2013-02-16 04:49:00,
2013-02-16 15:54:00,78.4,63.4,30.10,ESE,112,8.1,8.1,60,0.00,CLR,,0.00,WeatherDisplay:10.37,2013-02-16 04:54:00,
2013-02-16 15:59:00,78.1,62.6,30.10,SE,135,12.7,12.7,59,0.00,CLR,,0.00,WeatherDisplay:10.37,2013-02-16 04:59:00,
2013-02-16 16:00:00,78.1,62.6,30.10,SE,135,11.5,11.5,59,0.00,CLR,,0.00,WeatherDisplay:10.37,2013-02-16 05:00:00,
2013-02-16 16:05:00,78.6,63.1,30.10,ESE,112,9.2,9.2,59,0.00,CLR,,0.00,WeatherDisplay:10.37,2013-02-16 05:05:00,
2013-02-16 16:10:00,78.6,63.1,30.10,East,90,13.8,13.8,59,0.00,CLR,,0.00,WeatherDisplay:10.37,2013-02-16 05:10:00,
2013-02-16 16:15:00,78.6,63.1,30.10,SE,135,11.5,11.5,59,0.00,CLR,,0.00,WeatherDisplay:10.37,2013-02-16 05:15:00,
2013-02-16 16:20:00,78.4,62.9,30.10,East,90,8.1,8.1,59,0.00,CLR,,0.00,WeatherDisplay:10.37,2013-02-16 05:20:00,
2013-02-16 16:23:00,78.1,62.6,30.10,ESE,112,10.5,10.5,59,0.00,CLR,,0.00,WeatherDisplay:10.37,2013-02-16 05:23:00,
2013-02-16 16:28:00,77.7,62.2,30.10,East,90,11.5,11.5,59,0.00,CLR,,0.00,WeatherDisplay:10.37,2013-02-16 05:28:00,
2013-02-16 16:33:00,77.5,62.1,30.10,ESE,112,9.2,9.2,59,0.00,CLR,,0.00,WeatherDisplay:10.37,2013-02-16 05:33:00,
2013-02-16 16:38:00,77.7,62.7,30.11,SE,135,5.8,5.8,60,0.00,CLR,,0.00,WeatherDisplay:10.37,2013-02-16 05:38:00,
2013-02-16 16:43:00,77.9,62.4,30.10,East,90,12.7,12.7,59,0.00,CLR,,0.00,WeatherDisplay:10.37,2013-02-16 05:43:00,
2013-02-16 16:48:00,78.1,62.6,30.10,SE,135,10.4,10.4,59,0.00,CLR,,0.00,WeatherDisplay:10.37,2013-02-16 05:48:00,
2013-02-16 16:53:00,78.1,62.6,30.10,ESE,112,15.0,15.0,59,0.00,CLR,,0.00,WeatherDisplay:10.37,2013-02-16 05:53:00,
2013-02-16 16:58:00,77.7,61.8,30.10,ENE,68,11.5,11.5,58,0.00,CLR,,0.00,WeatherDisplay:10.37,2013-02-16 05:58:00,
2013-02-16 17:03:00,77.4,61.9,30.10,ESE,112,9.2,9.2,59,0.00,CLR,,0.00,WeatherDisplay:10.37,2013-02-16 06:03:00,
2013-02-16 17:08:00,77.2,61.7,30.10,SE,135,11.5,11.5,59,0.00,CLR,,0.00,WeatherDisplay:10.37,2013-02-16 06:08:00,
2013-02-16 17:13:00,77.5,62.1,30.10,SSE,158,8.1,8.1,59,0.00,CLR,,0.00,WeatherDisplay:10.37,2013-02-16 06:13:00,
2013-02-16 17:18:00,77.9,62.4,30.10,NE,45,4.0,4.0,59,0.00,CLR,,0.00,WeatherDisplay:10.37,2013-02-16 06:18:00,
2013-02-16 17:23:00,78.1,62.1,30.11,SSE,158,4.6,4.6,58,0.00,CLR,,0.00,WeatherDisplay:10.37,2013-02-16 06:23:00,
2013-02-16 17:28:00,78.4,62.4,30.10,ESE,112,4.6,4.6,58,0.00,CLR,,0.00,WeatherDisplay:10.37,2013-02-16 06:28:00,
2013-02-16 17:33:00,78.6,62.1,30.10,SE,135,9.8,9.8,57,0.00,CLR,,0.00,WeatherDisplay:10.37,2013-02-16 06:33:00,
2013-02-16 17:38:00,78.3,62.3,30.10,SSE,158,7.8,7.8,58,0.00,CLR,,0.00,WeatherDisplay:10.37,2013-02-16 06:38:00,
2013-02-16 17:43:00,77.7,61.8,30.10,ESE,112,6.9,6.9,58,0.00,CLR,,0.00,WeatherDisplay:10.37,2013-02-16 06:43:00,
2013-02-16 17:48:00,77.5,61.6,30.10,ESE,112,6.9,6.9,58,0.00,CLR,,0.00,WeatherDisplay:10.37,2013-02-16 06:48:00,
2013-02-16 17:53:00,77.5,62.1,30.11,ESE,112,8.5,8.5,59,0.00,CLR,,0.00,WeatherDisplay:10.37,2013-02-16 06:53:00,
2013-02-16 17:58:00,77.5,62.1,30.11,ENE,68,11.5,11.5,59,0.00,CLR,,0.00,WeatherDisplay:10.37,2013-02-16 06:58:00,
2013-02-16 18:03:00,77.0,61.6,30.11,SE,135,9.2,9.2,59,0.00,CLR,,0.00,WeatherDisplay:10.37,2013-02-16 07:03:00,
2013-02-16 18:08:00,76.6,61.2,30.11,SE,135,11.5,11.5,59,0.00,CLR,,0.00,WeatherDisplay:10.37,2013-02-16 07:08:00,
2013-02-16 18:13:00,76.3,60.9,30.11,SSE,158,10.4,10.4,59,0.00,CLR,,0.00,WeatherDisplay:10.37,2013-02-16 07:13:00,
2013-02-16 18:18:00,76.3,60.9,30.11,East,90,9.2,9.2,59,0.00,CLR,,0.00,WeatherDisplay:10.37,2013-02-16 07:18:00,
2013-02-16 18:23:00,76.1,60.7,30.11,ENE,68,9.2,9.2,59,0.00,CLR,,0.00,WeatherDisplay:10.37,2013-02-16 07:23:00,
2013-02-16 18:28:00,76.1,60.7,30.10,ESE,112,8.1,8.1,59,0.00,CLR,,0.00,WeatherDisplay:10.37,2013-02-16 07:28:00,
2013-02-16 18:33:00,76.1,60.7,30.11,SSE,158,8.1,8.1,59,0.00,CLR,,0.00,WeatherDisplay:10.37,2013-02-16 07:33:00,
2013-02-16 18:38:00,76.3,60.9,30.11,SE,135,4.6,4.6,59,0.00,CLR,,0.00,WeatherDisplay:10.37,2013-02-16 07:38:00,
2013-02-16 18:43:00,76.6,61.7,30.11,ESE,112,10.4,10.4,60,0.00,CLR,,0.00,WeatherDisplay:10.37,2013-02-16 07:43:00,
2013-02-16 18:48:00,76.6,61.7,30.11,SE,135,8.1,8.1,60,0.00,CLR,,0.00,WeatherDisplay:10.37,2013-02-16 07:48:00,
2013-02-16 18:53:00,76.6,61.7,30.11,NE,45,8.1,8.1,60,0.00,CLR,,0.00,WeatherDisplay:10.37,2013-02-16 07:53:00,
2013-02-16 18:58:00,76.6,61.7,30.11,SE,135,10.4,10.4,60,0.00,CLR,,0.00,WeatherDisplay:10.37,2013-02-16 07:58:00,
2013-02-16 19:03:00,76.5,61.5,30.11,SE,135,3.5,3.5,60,0.00,CLR,,0.00,WeatherDisplay:10.37,2013-02-16 08:03:00,
2013-02-16 19:08:00,76.3,61.8,30.11,ENE,68,8.1,8.1,61,0.00,CLR,,0.00,WeatherDisplay:10.37,2013-02-16 08:08:00,
2013-02-16 19:13:00,75.9,61.5,30.11,SE,135,5.8,5.8,61,0.00,CLR,,0.00,WeatherDisplay:10.37,2013-02-16 08:13:00,
2013-02-16 19:18:00,75.7,61.3,30.11,East,90,3.8,3.8,61,0.00,CLR,,0.00,WeatherDisplay:10.37,2013-02-16 08:18:00,
2013-02-16 19:23:00,75.6,61.2,30.11,SE,135,6.9,6.9,61,0.00,CLR,,0.00,WeatherDisplay:10.37,2013-02-16 08:23:00,
2013-02-16 19:28:00,75.4,61.5,30.11,SE,135,2.3,2.3,62,0.00,CLR,,0.00,WeatherDisplay:10.37,2013-02-16 08:28:00,
2013-02-16 19:33:00,75.4,61.5,30.11,SE,135,5.8,5.8,62,0.00,CLR,,0.00,WeatherDisplay:10.37,2013-02-16 08:33:00,
2013-02-16 19:38:00,75.2,61.3,30.11,ESE,112,5.8,5.8,62,0.00,CLR,,0.00,WeatherDisplay:10.37,2013-02-16 08:38:00,
2013-02-16 19:43:00,75.0,61.1,30.11,ESE,112,3.5,3.5,62,0.00,CLR,,0.00,WeatherDisplay:10.37,2013-02-16 08:43:00,
2013-02-16 19:48:00,75.0,61.6,30.11,SE,135,2.3,2.3,63,0.00,CLR,,0.00,WeatherDisplay:10.37,2013-02-16 08:48:00,
2013-02-16 19:53:00,75.0,61.6,30.11,East,90,3.5,3.5,63,0.00,CLR,,0.00,WeatherDisplay:10.37,2013-02-16 08:53:00,
2013-02-16 19:58:00,75.0,62.0,30.11,NE,45,2.3,2.3,64,0.00,CLR,,0.00,WeatherDisplay:10.37,2013-02-16 08:58:00,
2013-02-16 20:03:00,74.8,62.3,30.12,East,90,3.5,3.5,65,0.00,CLR,,0.00,WeatherDisplay:10.37,2013-02-16 09:03:00,
2013-02-16 20:08:00,74.8,62.3,30.12,ESE,112,3.5,3.5,65,0.00,CLR,,0.00,WeatherDisplay:10.37,2013-02-16 09:08:00,
2013-02-16 20:13:00,74.7,62.1,30.12,SE,135,2.3,2.3,65,0.00,CLR,,0.00,WeatherDisplay:10.37,2013-02-16 09:13:00,
2013-02-16 20:18:00,74.5,62.4,30.12,SSE,158,4.6,4.6,66,0.00,CLR,,0.00,WeatherDisplay:10.37,2013-02-16 09:18:00,
2013-02-16 20:23:00,74.5,62.4,30.12,ESE,112,3.5,3.5,66,0.00,CLR,,0.00,WeatherDisplay:10.37,2013-02-16 09:23:00,
2013-02-16 20:28:00,74.5,62.4,30.12,ESE,112,2.3,2.3,66,0.00,CLR,,0.00,WeatherDisplay:10.37,2013-02-16 09:28:00,
2013-02-16 20:33:00,74.5,62.4,30.12,ESE,112,2.3,2.3,66,0.00,CLR,,0.00,WeatherDisplay:10.37,2013-02-16 09:33:00,
2013-02-16 20:38:00,74.1,62.0,30.12,ESE,112,2.3,2.3,66,0.00,CLR,,0.00,WeatherDisplay:10.37,2013-02-16 09:38:00,
2013-02-16 20:43:00,74.1,62.5,30.12,ESE,112,1.1,0.0,67,0.00,CLR,,0.00,WeatherDisplay:10.37,2013-02-16 09:43:00,
2013-02-16 20:48:00,74.1,62.5,30.12,ENE,68,2.3,2.3,67,0.00,CLR,,0.00,WeatherDisplay:10.37,2013-02-16 09:48:00,
2013-02-16 20:53:00,73.9,62.3,30.12,ESE,112,2.3,2.3,67,0.00,CLR,,0.00,WeatherDisplay:10.37,2013-02-16 09:53:00,
2013-02-16 20:58:00,73.9,62.7,30.12,SE,135,3.5,3.5,68,0.00,CLR,,0.00,WeatherDisplay:10.37,2013-02-16 09:58:00,
2013-02-16 21:03:00,73.9,62.7,30.13,SE,135,1.1,1.2,68,0.00,CLR,,0.00,WeatherDisplay:10.37,2013-02-16 10:03:00,
2013-02-16 21:08:00,73.9,62.7,30.12,SE,135,2.3,2.3,68,0.00,CLR,,0.00,WeatherDisplay:10.37,2013-02-16 10:08:00,
2013-02-16 21:13:00,73.8,62.5,30.12,ENE,68,2.3,2.3,68,0.00,CLR,,0.00,WeatherDisplay:10.37,2013-02-16 10:13:00,
2013-02-16 21:18:00,73.9,62.7,30.12,East,90,3.5,3.5,68,0.00,CLR,,0.00,WeatherDisplay:10.37,2013-02-16 10:18:00,
2013-02-16 21:23:00,73.8,63.0,30.13,NNE,22,0.0,0.0,69,0.00,CLR,,0.00,WeatherDisplay:10.37,2013-02-16 10:23:00,
2013-02-16 21:28:00,73.8,63.0,30.13,North,0,3.5,3.5,69,0.00,CLR,,0.00,WeatherDisplay:10.37,2013-02-16 10:28:00,
2013-02-16 21:33:00,73.8,63.0,30.13,ESE,112,3.4,3.4,69,0.00,CLR,,0.00,WeatherDisplay:10.37,2013-02-16 10:33:00,
2013-02-16 21:38:00,73.8,62.5,30.13,East,90,5.8,5.8,68,0.00,CLR,,0.00,WeatherDisplay:10.37,2013-02-16 10:38:00,
2013-02-16 21:43:00,73.8,62.5,30.13,ENE,68,3.5,3.5,68,0.00,CLR,,0.00,WeatherDisplay:10.37,2013-02-16 10:43:00,
2013-02-16 21:48:00,73.8,62.5,30.13,East,90,2.3,2.3,68,0.00,CLR,,0.00,WeatherDisplay:10.37,2013-02-16 10:48:00,
2013-02-16 21:53:00,73.6,62.4,30.13,East,90,2.3,2.3,68,0.00,CLR,,0.00,WeatherDisplay:10.37,2013-02-16 10:53:00,
2013-02-16 21:58:00,73.4,62.6,30.13,East,90,1.1,0.0,69,0.00,CLR,,0.00,WeatherDisplay:10.37,2013-02-16 10:58:00,
2013-02-16 22:03:00,73.2,62.4,30.14,ESE,112,1.1,1.1,69,0.00,CLR,,0.00,WeatherDisplay:10.37,2013-02-16 11:03:00,
2013-02-16 22:08:00,73.2,62.4,30.14,ESE,112,0.0,0.0,69,0.00,CLR,,0.00,WeatherDisplay:10.37,2013-02-16 11:08:00,
2013-02-16 22:13:00,73.0,62.3,30.14,ENE,68,0.0,0.0,69,0.00,CLR,,0.00,WeatherDisplay:10.37,2013-02-16 11:13:00,
2013-02-16 22:18:00,72.7,61.9,30.14,SE,135,0.0,0.0,69,0.00,CLR,,0.00,WeatherDisplay:10.37,2013-02-16 11:18:00,
2013-02-16 22:23:00,72.7,61.9,30.14,East,90,3.5,3.5,69,0.00,CLR,,0.00,WeatherDisplay:10.37,2013-02-16 11:23:00,
2013-02-16 22:28:00,73.0,62.3,30.15,ESE,112,8.1,8.1,69,0.00,CLR,,0.00,WeatherDisplay:10.37,2013-02-16 11:28:00,
2013-02-16 22:33:00,72.7,62.7,30.15,SE,135,8.1,8.1,71,0.04,RA,,0.06,WeatherDisplay:10.37,2013-02-16 11:33:00,
2013-02-16 22:38:00,72.0,62.8,30.15,WNW,292,3.5,3.5,73,0.14,RA,,0.14,WeatherDisplay:10.37,2013-02-16 11:38:00,
2013-02-16 22:43:00,71.2,62.9,30.14,WNW,292,1.1,1.1,75,0.20,RA,,0.20,WeatherDisplay:10.37,2013-02-16 11:43:00,
2013-02-16 22:48:00,71.2,63.7,30.14,NNW,338,1.1,1.1,77,0.20,RA,,0.20,WeatherDisplay:10.37,2013-02-16 11:48:00,
2013-02-16 22:53:00,70.9,63.7,30.14,West,270,0.0,0.0,78,0.20,CLR,,0.20,WeatherDisplay:10.37,2013-02-16 11:53:00,
2013-02-16 22:58:00,70.9,64.0,30.14,East,90,1.3,1.3,79,0.20,CLR,,0.20,WeatherDisplay:10.37,2013-02-16 11:58:00,
2013-02-16 23:03:00,70.9,64.4,30.14,NE,45,0.0,0.0,80,0.20,CLR,,0.20,WeatherDisplay:10.37,2013-02-16 12:03:00,
2013-02-16 23:09:00,70.9,64.4,30.14,NE,45,0.0,0.0,80,0.20,CLR,,0.20,WeatherDisplay:10.37,2013-02-16 12:09:00,
2013-02-16 23:14:00,70.7,64.2,30.14,ESE,112,0.0,0.0,80,0.20,CLR,,0.20,WeatherDisplay:10.37,2013-02-16 12:14:00,
2013-02-16 23:19:00,70.7,64.2,30.14,SSE,158,0.0,0.0,80,0.20,CLR,,0.20,WeatherDisplay:10.37,2013-02-16 12:19:00,
2013-02-16 23:24:00,70.5,64.0,30.14,SSW,202,0.0,0.0,80,0.20,CLR,,0.20,WeatherDisplay:10.37,2013-02-16 12:24:00,
2013-02-16 23:29:00,70.5,64.0,30.14,SSW,202,0.0,0.0,80,0.20,CLR,,0.20,WeatherDisplay:10.37,2013-02-16 12:29:00,
2013-02-16 23:34:00,70.5,64.4,30.14,SSE,158,0.0,0.0,81,0.16,CLR,,0.20,WeatherDisplay:10.37,2013-02-16 12:34:00,
2013-02-16 23:39:00,70.5,64.4,30.14,SE,135,2.0,2.0,81,0.08,CLR,,0.20,WeatherDisplay:10.37,2013-02-16 12:39:00,
2013-02-16 23:44:00,70.3,64.2,30.14,SE,135,5.8,5.8,81,0.00,CLR,,0.22,WeatherDisplay:10.37,2013-02-16 12:44:00,
2013-02-16 23:49:00,69.8,63.3,30.14,East,90,17.3,17.3,80,0.08,RA,,0.28,WeatherDisplay:10.37,2013-02-16 12:49:00,
2013-02-16 23:54:00,69.6,63.5,30.14,East,90,6.9,6.9,81,0.16,RA,,0.37,WeatherDisplay:10.37,2013-02-16 12:54:00,
2013-02-16 23:59:00,69.8,63.7,30.14,ESE,112,5.8,5.8,81,0.16,RA,,0.37,WeatherDisplay:10.37,2013-02-16 12:59:00,